's-Gravenzande, Netherlands

12:47 AM CET on February 07, 2016 (GMT +0100)
's-Gravenzande (Westland) | | Change Station
CLOSE
Current Station
Personal Weather Station
Location: 's-Gravenzande, ZUID-HOLLAND
Elevation: 3 ft
Nearby Weather Stations

Elev 3 ft 52.00 °N, 4.17 °E | Updated 1 minute ago

Clear
Clear
52.3 °F
Feels Like 52.3 °F
N
11.0
Wind Variable Wind from SSE
Gusts 16.0 mph

Today
High -- | Low -- °F
--% Chance of Precip.
Yesterday
High -- | Low -- °F
Precip. -- in
Pressure 29.36 in
Visibility 6.2 miles
Clouds
Dew Point 43 °F
Humidity 70%
Rainfall 0.00 in
Snow Depth Not available.
8:14 AM 5:41 PM
Waning Crescent, 3% visible
METAR EHRD 062325Z AUTO 16016KT 130V190 9999 NSC 10/05 Q0994 NOSIG
Pressure 29.36 in
Visibility 6.2 miles
Clouds
Dew Point 43 °F
Humidity 70%
Rainfall 0.00 in
Snow Depth Not available.
8:14 AM 5:41 PM
Waning Crescent, 3% visible
METAR EHRD 062325Z AUTO 16016KT 130V190 9999 NSC 10/05 Q0994 NOSIG

10-Day Weather Forecast

Almanac

Astronomy

Feb. 07, 2016 Rise Set
Actual Time
Civil Twilight
Nautical Twilight
Astronomical Twilight
Moon
Length of Visible Light
Length of Day
Tomorrow will be .
, % of the Moon is Illuminated

Today's Extremes

Country Highs Country Lows

Community

WunderPhotos

Upload Photos

1,891,098 photos uploaded!

WunderBlog® & News

Nearby

Air Quality

  Air Quality AQ Index Pollutant
Not available.

Snow Depth

Station Depth Elevation

Earthquake Activity

City Distance Mag. Time & Date
Minimum magnitude displayed is 2.5.

Coastal Water Temperatures

Place Temperature

Stations

Nearby Weather Stations

Station Location Temp. Windchill Dew Point Humidity Wind Precip. Elev Updated Type